Nearby METAR Reports

 

KEDC - Austin Exec, Texas, USA
Distance from station: SW 16mi, 25km
Updated: Fri, 26-Feb-2021 3:15am CST
Mist, Overcast
Mist, Overcast
 Wind from NNW
Wind: NNW 12 mph , 19 km/h
Temperature: 46°F , 8°C
Wind Chill: 40°F , 4°C
Dew Point: 46°F , 8°C
Humidity: 100%
Barometer: 30.01 inHg , 1016.3 hPa
Summary: Mist
Clouds: Overcast
Visibility: 3 miles , 5 km
Cloud details: Overcast 800 ft
2021/02/26 09:15 KEDC 260915Z AUTO 34010KT 3SM BR OVC008 08/08 A3001 RMK AO2
KGTU - Georgetown, Texas, USA
Distance from station: WNW 17mi, 28km
Updated: Fri, 26-Feb-2021 2:56am CST
Light rain, Mist, Overcast
Light rain, Mist, Overcast
 Wind from NW
Wind: NW 9 mph , 15 km/h
Temperature: 46°F , 8°C
Wind Chill: 41°F , 5°C
Dew Point: 45°F , 7°C
Humidity: 93%
Barometer: 30.02 inHg , 1016.6 hPa
Summary: Light rain, Mist
Clouds: Overcast
Visibility: 5 miles , 8 km
Cloud details: Overcast 700 ft
2021/02/26 08:56 KGTU 260856Z AUTO 32008KT 5SM -RA BR OVC007 08/07 A3002 RMK AO2 RAB51 SLP168 P0000 60002 T00780067 58007
 
KATT - Austin/Mabry, Texas, USA
Distance from station: SW 28mi, 45km
Updated: Fri, 26-Feb-2021 2:51am CST
Overcast
Overcast
 Wind from NNW
Wind: NNW 5 mph , 7 km/h
Temperature: 48°F , 9°C
Wind Chill: 46°F , 8°C
Dew Point: 45°F , 7°C
Humidity: 87%
Barometer: 30.00 inHg , 1015.9 hPa
Clouds: Overcast
Visibility: 9 miles , 14 km
Cloud details: Overcast 800 ft
2021/02/26 08:51 KATT 260851Z AUTO 34004KT 9SM OVC008 09/07 A3000 RMK AO2 CIG 006V010 SLP161 60002 T00890067 58007
KAUS - Austin, Texas, USA
Distance from station: SSW 32mi, 51km
Updated: Fri, 26-Feb-2021 2:53am CST
Overcast
Overcast
 Wind from NNW
Wind: NNW 8 mph , 13 km/h
Temperature: 50°F , 10°C
Wind Chill: 47°F , 8°C
Dew Point: 46°F , 8°C
Humidity: 88%
Barometer: 29.99 inHg , 1015.6 hPa
Clouds: Overcast
Visibility: 10 miles , 16 km
Cloud details: Overcast 1000 ft
2021/02/26 08:53 KAUS 260853Z 34007KT 10SM OVC010 10/08 A2999 RMK AO2 SLP156 60002 T01000078 58008
 
KRYW - Lago Vista, Texas, USA
Distance from station: W 33mi, 54km
Updated: Fri, 26-Feb-2021 3:15am CST
Light rain, Overcast
Light rain, Overcast
 Wind from NW
Wind: NW 5 mph , 7 km/h
Temperature: 45°F , 7°C
Wind Chill: 42°F , 6°C
Dew Point: 43°F , 6°C
Humidity: 93%
Barometer: 30.00 inHg , 1015.9 hPa
Summary: Light rain
Clouds: Overcast
Visibility: 4 miles , 6 km
Cloud details: Mostly cloudy 400 ft
Overcast 1500 ft
2021/02/26 09:15 KRYW 260915Z AUTO 32004KT 4SM -RA BKN004 OVC015 07/06 A3000 RMK AO2 T00650063
KILE - Killeen Muni, Texas, USA
Distance from station: NNW 37mi, 59km
Updated: Fri, 26-Feb-2021 3:29am CST
Mist, Overcast
Mist, Overcast
 Wind from NW
Wind: NW 8 mph , 13 km/h
Temperature: 45°F , 7°C
Wind Chill: 41°F , 5°C
Dew Point: 45°F , 7°C
Humidity: 100%
Barometer: 30.00 inHg , 1015.9 hPa
Summary: Mist
Clouds: Overcast
Visibility: 5 miles , 8 km
Cloud details: Mostly cloudy 600 ft
Overcast 1700 ft
2021/02/26 09:29 KILE 260929Z AUTO 32007KT 5SM BR BKN006 OVC017 07/07 A3000 RMK AO2 RAB04E27 CIG 005V008 P0000
 
KTPL - Temple/Miller, Texas, USA
Distance from station: N 38mi, 61km
Updated: Fri, 26-Feb-2021 3:24am CST
Overcast
Overcast
 Wind from NNW
Wind: NNW 12 mph , 19 km/h
Temperature: 46°F , 8°C
Wind Chill: 40°F , 4°C
Dew Point: 46°F , 8°C
Humidity: 100%
Barometer: 30.00 inHg , 1015.9 hPa
Clouds: Overcast
Visibility: 10 miles , 16 km
Cloud details: Mostly cloudy 600 ft
Overcast 2600 ft
2021/02/26 09:24 KTPL 260924Z AUTO 33010KT 10SM BKN006 OVC026 08/08 A3000 RMK AO2
KGYB - Giddings-Lee, Texas, USA
Distance from station: SE 39mi, 62km
Updated: Fri, 26-Feb-2021 3:15am CST
Mist, Overcast
Mist, Overcast
 Wind from N
Wind: N 10 mph , 17 km/h
Temperature: 48°F , 9°C
Wind Chill: 44°F , 7°C
Dew Point: 48°F , 9°C
Humidity: 100%
Barometer: 29.98 inHg , 1015.2 hPa
Summary: Mist
Clouds: Overcast
Visibility: 2 miles , 3 km
Cloud details: Overcast 200 ft
2021/02/26 09:15 KGYB 260915Z AUTO 35009KT 2SM BR OVC002 09/09 A2998 RMK AO2 T00910087
 
KGRK - Gray/Ft Hood, Texas, USA
Distance from station: NW 42mi, 67km
Updated: Fri, 26-Feb-2021 3:22am CST
Light rain, Mist, Overcast
Light rain, Mist, Overcast
 Wind from NNW
Wind: NNW 8 mph , 13 km/h
Temperature: 45°F , 7°C
Wind Chill: 41°F , 5°C
Dew Point: 43°F , 6°C
Humidity: 93%
Barometer: 29.99 inHg , 1015.6 hPa
Summary: Light rain, Mist
Clouds: Overcast
Visibility: 2 3/4 miles , 4.4 km
Cloud details: Overcast 700 ft
2021/02/26 09:22 KGRK 260922Z AUTO 33007KT 2 3/4SM -RA BR OVC007 07/06 A2999 RMK AO2 VIS 1 7/8V2 3/4 RAB05 SLP157
KHLR - Ft Hood/Killeen, Texas, USA
Distance from station: NNW 42mi, 67km
Updated: Fri, 26-Feb-2021 3:03am CST
Mist, Overcast
Mist, Overcast
 Wind from NNW
Wind: NNW 9 mph , 15 km/h
Temperature: 45°F , 7°C
Wind Chill: 40°F , 4°C
Dew Point: 45°F , 7°C
Humidity: 100%
Barometer: 30.00 inHg , 1015.9 hPa
Summary: Mist
Clouds: Overcast
Visibility: 6 miles , 10 km
Cloud details: Mostly cloudy 600 ft
Mostly cloudy 1900 ft
Mostly cloudy 2600 ft
Overcast 3300 ft
2021/02/26 09:03 KHLR 260903Z AUTO 33008KT 6SM BR BKN006 BKN019 BKN026 OVC033 07/07 A3000 RMK AO2 CIG 005V019 BKN006 V SCT SLP159 PNO $
 
KRWV - Caldwell, Texas, USA
Distance from station: E 43mi, 69km
Updated: Fri, 26-Feb-2021 3:15am CST
Mist, Overcast
Mist, Overcast
 Wind from NNW
Wind: NNW 10 mph , 17 km/h
Temperature: 48°F , 9°C
Wind Chill: 44°F , 7°C
Dew Point: 46°F , 8°C
Humidity: 94%
Barometer: 29.98 inHg , 1015.2 hPa
Summary: Mist
Clouds: Overcast
Visibility: 2 1/2 miles , 4 km
Cloud details: Overcast 200 ft
2021/02/26 09:15 KRWV 260915Z AUTO 33009KT 2 1/2SM BR OVC002 09/08 A2998 RMK AO2 T00880084
KBMQ - Burnet, Texas, USA
Distance from station: WNW 50mi, 80km
Updated: Fri, 26-Feb-2021 2:53am CST
Mist, Overcast
Mist, Overcast
 Wind from NW
Wind: NW 8 mph , 13 km/h
Temperature: 45°F , 7°C
Wind Chill: 41°F , 5°C
Dew Point: 43°F , 6°C
Humidity: 93%
Barometer: 30.03 inHg , 1016.9 hPa
Summary: Mist
Clouds: Overcast
Visibility: 4 miles , 6 km
Cloud details: Overcast 600 ft
2021/02/26 08:53 KBMQ 260853Z AUTO 32007KT 4SM BR OVC006 07/06 A3003 RMK AO2 SLP164 T00720061 56008